x

Cape Elizabeth- 45nm Nw Of Aberdeen, Wa (46041) Wave Buoy

5:50am - Wed 21st Nov 2018 All times are PST. -8 hours from GMT.

  • Sig Wave height 8.9ft
  • Swell Direction
  • Peak Period 8s
  • Average Period 6s
  • Wind
    29mph, 36mph gusts
  • Sea Temp 55°f
  • Air Temp 50°f
  • Sea Pressure 1004.8mb
  • Cape Elizabeth- 45nm Nw Of Aberdeen, Wa
  • Cape Elizabeth- 45nm Nw Of Aberdeen, Wa

More Historic Weather Station data

Upgrade to MSW Pro to gain access to the past 30 days of data for over 8000 Wavebouys and Weather Stations around the globe.

Join

Comparision Forecast

View Surf forecast
   
Wed 11/21 5:50am 9ft 8s 6s 29 36 mph 1004.8mb 55f 50f
3:50am 7.5ft 8s 6s 29 38 mph 1005.8mb 55f 50f
2:50am 6.5ft 7s 5s 27 31 mph 1006.7mb 55f 53f
1:50am 6.5ft 7s 5s 22 27 mph 1006.9mb 55f 54f
Tue 11/20 11:50pm 6ft 7s 5s 22 27 mph 1008.6mb 56f 54f
10:50pm 5ft 6s 5s 25 29 mph 1008.9mb 56f 55f
8:50pm 4.5ft 6s 5s 20 25 mph 1009.1mb 56f 55f
7:50pm 4ft 6s 5s 20 25 mph 1008.7mb 56f 55f
6:50pm 4ft 4s 5s 18 22 mph 1009.3mb 55f 55f
5:50pm 3.5ft 4s 5s 18 20 mph 1009.2mb 55f 55f
4:50pm 3.5ft 7s 5s 18 22 mph 1009.5mb 55f 56f
3:50pm 3.5ft 9s 5s 16 18 mph 1010mb 55f 55f
1:50pm 3.5ft 6s 5s 13 16 mph 1011.1mb 56f 54f
12:50pm 3.5ft 8s 5s 16 18 mph 1011.5mb 56f 54f
11:50am 4ft 9s 5s 16 18 mph 1012mb 56f 53f
10:50am 4ft 4s 4s 18 22 mph 1012.4mb 55f 53f
9:50am 3.5ft 4s 4s 20 22 mph 1012.5mb 55f 52f
8:50am 4ft 4s 5s 20 25 mph 1012.7mb 55f 51f
7:50am 3.5ft 10s 5s 20 25 mph 1012.8mb 55f 52f
6:50am 3.5ft 10s 5s 18 18 mph 1013.1mb 55f 51f
5:50am 3.5ft 9s 5s 16 18 mph 1013.5mb 55f 52f
4:50am 3.5ft 10s 5s 16 18 mph 1013.8mb 55f 52f
3:50am 3.5ft 10s 5s 13 18 mph 1014.3mb 56f 52f
2:50am 3.5ft 10s 5s 13 18 mph 1015.1mb 56f 52f
1:50am 3.5ft 10s 5s 13 16 mph 1015.5mb 56f 53f
12:50am 3.5ft 10s 5s 13 16 mph 1015.6mb 56f 53f
Mon 11/19 11:50pm 3.5ft 10s 5s 13 16 mph 1015.9mb 56f 52f
10:50pm 3.5ft 10s 5s 13 16 mph 1016.2mb 56f 53f
9:50pm 3ft 11s 5s 16 20 mph 1015.9mb 56f 53f
8:50pm 3ft 10s 6s 18 20 mph 1015.8mb 56f 53f
7:50pm 3ft 10s 6s 16 18 mph 1016.2mb 56f 54f
6:50pm 3ft 10s 7s 13 18 mph 1016.2mb 56f 54f
5:50pm 3ft 11s 6s 11 13 mph 1016.6mb 56f 55f
4:50pm 3.5ft 11s 6s 9 11 mph 1017.1mb 56f 54f
3:50pm 3.5ft 11s 6s 11 11 mph 1017.1mb 56f 54f
2:50pm 3.5ft 11s 6s 11 13 mph 1017.1mb 56f 54f
1:50pm 3.5ft 11s 6s 11 13 mph 1017.5mb 56f 53f
12:50pm 4ft 11s 6s 13 16 mph 1017.9mb 56f 52f
11:50am 3.5ft 11s 5s 16 20 mph 1018.3mb 56f 51f
9:50am 4ft 11s 5s 13 18 mph 1019.2mb 55f 50f
8:50am 4ft 11s 5s 18 20 mph 1019mb 55f 50f
7:50am 4ft 11s 6s 16 18 mph 1018.7mb 55f 50f
6:50am 4ft 11s 6s 16 20 mph 1018.8mb 55f 51f
5:50am 4ft 10s 6s 13 18 mph 1019.1mb 55f 50f
4:50am 4ft 12s 6s 13 18 mph 1019.1mb 55f 50f
3:50am 4ft 12s 6s 18 20 mph 1019mb 55f 51f
2:50am 4ft 10s 5s 16 18 mph 1019.4mb 55f 51f
12:50am 4.5ft 11s 6s 18 20 mph 1019.6mb 55f 51f
Sun 11/18 11:50pm 4.5ft 11s 6s 16 18 mph 1019.8mb 55f 52f
10:50pm 4.5ft 11s 7s 16 18 mph 1019.7mb 55f 51f
9:50pm 4.5ft 12s 7s 16 18 mph 1019.7mb 55f 52f
8:50pm 4.5ft 12s 8s 13 16 mph 1019.5mb 55f 52f
7:50pm 4ft 13s 8s 13 16 mph 1019.5mb 55f 53f
6:50pm 4ft 12s 9s 13 16 mph 1019.4mb 55f 54f
5:50pm 5ft 12s 9s 7 7 mph 1019.6mb 55f 53f
4:50pm 4ft 12s 8s 4 7 mph 1019.7mb 55f 53f
3:50pm 5ft 13s 9s 7 9 mph 1019.9mb 55f 52f
2:50pm 4.5ft 13s 8s 7 7 mph 1020.1mb 56f 51f
1:50pm 5ft 13s 8s 7 9 mph 1020.3mb 56f 51f
12:50pm 4.5ft 13s 7s 7 9 mph 1020.6mb 55f 51f
11:50am 5ft 13s 7s 9 11 mph 1021mb 55f 50f
9:50am 4.5ft 13s 8s 7 9 mph 1021.4mb 54f 50f
8:50am 5ft 13s 8s 7 9 mph 1021.6mb 54f 50f
7:50am 4.5ft 11s 7s 7 9 mph 1021.2mb 55f 50f
6:50am 5ft 12s 8s 7 9 mph 1021.2mb 55f 49f
5:50am 5.5ft 11s 9s 9 11 mph 1021.3mb 55f 49f
4:50am 5ft 13s 9s 9 11 mph 1021.4mb 56f 49f
3:50am 6ft 12s 10s 9 11 mph 1021.6mb 56f 50f
2:50am 5.5ft 13s 10s 4 7 mph 1022.3mb 55f 50f
12:50am 6ft 13s 11s 2 4 mph 1022.5mb 55f 50f
Sat 11/17 11:50pm 5.5ft 12s 10s 7 9 mph 1022.1mb 54f 51f
10:50pm 5ft 14s 10s 7 9 mph 1022.1mb 54f 51f
9:50pm 6.5ft 14s 12s 9 11 mph 1022.1mb 54f 50f
8:50pm 7ft 14s 12s 9 9 mph 1022.2mb 54f 52f
7:50pm 6ft 14s 11s 9 9 mph 1022.4mb 53f 52f
6:50pm 7ft 14s 12s 4 7 mph 1023.1mb 54f 51f
5:50pm 6ft 14s 12s 7 9 mph 1023.1mb 54f 50f
4:50pm 5ft 14s 11s 7 9 mph 1023.4mb 54f 50f
3:50pm 5ft 14s 10s 7 9 mph 1023.4mb 54f 50f